createdAt,value
2022-08-08T00:00:51.723Z,15.28
2022-08-08T00:01:00.692Z,15.44
2022-08-08T00:02:04.344Z,15.28
2022-08-08T00:02:52.769Z,15.17
2022-08-08T00:03:53.166Z,15.06
2022-08-08T00:04:53.047Z,15.17
2022-08-08T00:06:01.173Z,15.28
2022-08-08T00:06:52.769Z,15.17
2022-08-08T00:07:52.776Z,15.17
2022-08-08T00:08:52.779Z,15.17
2022-08-08T00:09:52.773Z,15.17
2022-08-08T00:10:52.768Z,15.17
2022-08-08T00:12:07.935Z,15.28
2022-08-08T00:12:56.556Z,15.06
2022-08-08T00:14:16.226Z,15.17
2022-08-08T00:14:57.552Z,15.17
2022-08-08T00:15:56.208Z,14.89
2022-08-08T00:16:52.783Z,14.89
2022-08-08T00:18:02.925Z,14.78
2022-08-08T00:18:52.788Z,14.89
2022-08-08T00:19:52.797Z,14.89
2022-08-08T00:20:52.794Z,14.89
2022-08-08T00:21:52.790Z,14.78
2022-08-08T00:22:52.804Z,14.78
2022-08-08T00:23:52.798Z,14.44
2022-08-08T00:24:52.813Z,14.78
2022-08-08T00:25:52.806Z,14.78
2022-08-08T00:26:52.813Z,14.61
2022-08-08T00:27:52.810Z,14.78
2022-08-08T00:28:52.823Z,14.61
2022-08-08T00:29:52.812Z,14.28
2022-08-08T00:31:00.817Z,14.78
2022-08-08T00:32:15.995Z,14.78
2022-08-08T00:32:52.817Z,14.89
2022-08-08T00:34:17.696Z,14.89
2022-08-08T00:34:52.823Z,14.44
2022-08-08T00:35:52.823Z,14.78
2022-08-08T00:36:54.760Z,14.89
2022-08-08T00:37:57.039Z,14.89
2022-08-08T00:38:54.715Z,14.78
2022-08-08T00:41:08.339Z,14.78
2022-08-08T00:41:08.799Z,14.78
2022-08-08T00:41:55.455Z,15.06
2022-08-08T00:42:52.877Z,14.89
2022-08-08T00:43:56.115Z,14.78
2022-08-08T00:44:52.835Z,14.78
2022-08-08T00:45:52.840Z,14.61
2022-08-08T00:46:56.257Z,15.06
2022-08-08T00:48:01.853Z,15.17
2022-08-08T00:48:59.540Z,15.17
2022-08-08T00:49:58.649Z,15.06
2022-08-08T00:50:53.577Z,15.06
2022-08-08T00:51:52.854Z,14.89
2022-08-08T00:52:52.860Z,15.06
2022-08-08T00:53:57.429Z,15.06
2022-08-08T00:54:52.858Z,14.61
2022-08-08T00:55:54.538Z,14.89
2022-08-08T00:56:52.872Z,14.89
2022-08-08T00:57:57.187Z,15.17
2022-08-08T00:58:54.230Z,15.17
2022-08-08T00:59:52.865Z,15.17
2022-08-08T01:00:52.927Z,15.17
2022-08-08T01:01:52.904Z,15.17
2022-08-08T01:03:16.132Z,14.89
2022-08-08T01:04:00.361Z,15.17
2022-08-08T01:04:52.874Z,15.17
2022-08-08T01:05:59.089Z,14.89
2022-08-08T01:06:54.407Z,15.06
2022-08-08T01:07:55.096Z,15.17
2022-08-08T01:08:52.885Z,14.89
2022-08-08T01:09:52.891Z,15.06
2022-08-08T01:10:52.886Z,15.06
2022-08-08T01:11:52.891Z,14.78
2022-08-08T01:12:53.189Z,14.78
2022-08-08T01:13:58.303Z,15.17
2022-08-08T01:14:53.032Z,14.89
2022-08-08T01:15:53.531Z,15.06
2022-08-08T01:16:52.910Z,15.06
2022-08-08T01:17:54.086Z,14.89
2022-08-08T01:18:54.739Z,15.06
2022-08-08T01:20:02.358Z,14.89
2022-08-08T01:20:52.905Z,14.78
2022-08-08T01:22:03.972Z,15.06
2022-08-08T01:22:52.911Z,15.06
2022-08-08T01:23:55.656Z,15.06
2022-08-08T01:24:54.042Z,14.89
2022-08-08T01:25:54.052Z,14.89
2022-08-08T01:26:52.913Z,14.89
2022-08-08T01:27:52.902Z,15.06
2022-08-08T01:28:52.912Z,15.06
2022-08-08T01:29:58.580Z,14.89
2022-08-08T01:30:53.543Z,14.89
2022-08-08T01:32:03.095Z,15.06
2022-08-08T01:32:52.924Z,15.17
2022-08-08T01:33:54.566Z,15.06
2022-08-08T01:34:52.929Z,15.06
2022-08-08T01:35:52.927Z,14.78
2022-08-08T01:36:52.923Z,14.78
2022-08-08T01:37:57.992Z,15.06
2022-08-08T01:38:53.079Z,15.06
2022-08-08T01:39:53.523Z,14.89
2022-08-08T01:40:52.931Z,15.06
2022-08-08T01:41:52.933Z,14.78
2022-08-08T01:42:52.932Z,14.89
2022-08-08T01:43:52.929Z,15.06
2022-08-08T01:44:53.393Z,14.78
2022-08-08T01:45:54.373Z,15.17
2022-08-08T01:46:52.932Z,14.44
2022-08-08T01:47:59.115Z,14.89
2022-08-08T01:48:52.936Z,15.17
2022-08-08T01:49:53.450Z,15.17
2022-08-08T01:50:52.944Z,15.06
2022-08-08T01:52:03.690Z,15.06
2022-08-08T01:53:29.208Z,15.06
2022-08-08T01:54:02.071Z,15.17
2022-08-08T01:55:18.281Z,15.17
2022-08-08T01:56:26.081Z,15.17
2022-08-08T01:56:52.947Z,15.17
2022-08-08T01:58:10.699Z,15.17
2022-08-08T01:58:52.952Z,15.06
2022-08-08T02:00:02.701Z,15.06
2022-08-08T02:00:57.189Z,15.06
2022-08-08T02:01:54.902Z,15.06
2022-08-08T02:02:52.952Z,14.78
2022-08-08T02:03:56.404Z,15.06
2022-08-08T02:04:52.951Z,15.17
2022-08-08T02:05:56.138Z,15.06
2022-08-08T02:06:52.953Z,14.78
2022-08-08T02:07:52.956Z,15.17
2022-08-08T02:08:52.956Z,14.78
2022-08-08T02:10:02.926Z,15.06
2022-08-08T02:10:52.951Z,15.17
2022-08-08T02:12:00.339Z,15.06
2022-08-08T02:12:52.969Z,15.17
2022-08-08T02:13:55.473Z,14.89
2022-08-08T02:14:56.141Z,14.89
2022-08-08T02:15:52.962Z,14.61
2022-08-08T02:16:52.964Z,14.89
2022-08-08T02:17:52.965Z,15.06
2022-08-08T02:18:58.659Z,15.06
2022-08-08T02:19:58.100Z,14.89
2022-08-08T02:21:00.318Z,14.61
2022-08-08T02:21:52.967Z,15.06
2022-08-08T02:22:55.068Z,15.17
2022-08-08T02:23:54.568Z,15.06
2022-08-08T02:24:52.971Z,15.06
2022-08-08T02:25:52.966Z,15.06
2022-08-08T02:26:52.969Z,15.17
2022-08-08T02:27:52.968Z,15.17
2022-08-08T02:28:52.969Z,15.06
2022-08-08T02:29:53.155Z,14.89
2022-08-08T02:30:58.017Z,15.17
2022-08-08T02:31:59.722Z,15.17
2022-08-08T02:32:52.966Z,15.17
2022-08-08T02:34:00.229Z,15.17
2022-08-08T02:35:08.688Z,14.78
2022-08-08T02:36:02.546Z,14.89
2022-08-08T02:36:54.625Z,15.17
2022-08-08T02:37:56.650Z,15.06
2022-08-08T02:38:52.982Z,14.89
2022-08-08T02:39:57.607Z,14.89
2022-08-08T02:40:52.995Z,15.06
2022-08-08T02:41:59.726Z,15.06
2022-08-08T02:43:00.758Z,14.78
2022-08-08T02:44:36.199Z,15.06
2022-08-08T02:44:58.213Z,15.17
2022-08-08T02:45:54.288Z,15.17
2022-08-08T02:46:52.985Z,14.89
2022-08-08T02:47:54.989Z,15.06
2022-08-08T02:48:52.981Z,15.06
2022-08-08T02:49:52.978Z,15.17
2022-08-08T02:50:55.866Z,15.17
2022-08-08T02:51:55.503Z,15.17
2022-08-08T02:52:53.225Z,15.17
2022-08-08T02:53:52.981Z,15.17
2022-08-08T02:54:52.986Z,15.17
2022-08-08T02:55:58.046Z,15.06
2022-08-08T02:56:52.980Z,14.89
2022-08-08T02:57:52.980Z,14.44
2022-08-08T02:58:52.983Z,14.89
2022-08-08T02:59:58.150Z,15.06
2022-08-08T03:00:53.043Z,15.06
2022-08-08T03:01:53.037Z,14.89
2022-08-08T03:02:52.984Z,14.89
2022-08-08T03:05:02.089Z,14.78
2022-08-08T03:05:05.598Z,14.78
2022-08-08T03:05:53.570Z,14.44
2022-08-08T03:06:53.000Z,14.78
2022-08-08T03:07:57.583Z,14.89
2022-08-08T03:08:52.987Z,14.78
2022-08-08T03:09:52.989Z,14.78
2022-08-08T03:10:53.734Z,14.78
2022-08-08T03:12:01.399Z,14.78
2022-08-08T03:13:01.277Z,14.78
2022-08-08T03:15:55.057Z,14.28
2022-08-08T03:15:55.091Z,14.78
2022-08-08T03:15:55.617Z,14.78
2022-08-08T03:16:52.994Z,14.78
2022-08-08T03:18:00.066Z,14.78
2022-08-08T03:18:53.006Z,14.44
2022-08-08T03:19:52.997Z,14.61
2022-08-08T03:20:52.997Z,14.78
2022-08-08T03:21:55.016Z,14.61
2022-08-08T03:22:56.595Z,14.78
2022-08-08T03:23:57.456Z,14.61
2022-08-08T03:24:56.882Z,14.78
2022-08-08T03:25:52.996Z,14.78
2022-08-08T03:26:53.002Z,14.78
2022-08-08T03:27:56.400Z,14.61
2022-08-08T03:28:53.006Z,14.78
2022-08-08T03:29:55.442Z,14.78
2022-08-08T03:31:07.688Z,14.44
2022-08-08T03:32:05.713Z,14.78
2022-08-08T03:32:58.765Z,14.78
2022-08-08T03:33:54.275Z,14.61
2022-08-08T03:34:53.013Z,14.89
2022-08-08T03:35:53.520Z,14.61
2022-08-08T03:36:53.021Z,14.89
2022-08-08T03:38:00.395Z,14.78
2022-08-08T03:38:59.464Z,14.61
2022-08-08T03:40:00.336Z,14.89
2022-08-08T03:40:53.093Z,14.89
2022-08-08T03:42:13.650Z,15.06
2022-08-08T03:42:53.033Z,14.78
2022-08-08T03:43:53.038Z,14.89
2022-08-08T03:44:53.034Z,14.89
2022-08-08T03:46:03.885Z,14.78
2022-08-08T03:46:53.047Z,14.61
2022-08-08T03:47:54.186Z,14.78
2022-08-08T03:49:10.437Z,14.78
2022-08-08T03:49:59.357Z,14.78
2022-08-08T03:50:53.040Z,14.78
2022-08-08T03:51:53.057Z,14.89
2022-08-08T03:52:53.050Z,14.78
2022-08-08T03:53:53.057Z,14.78
2022-08-08T03:55:02.846Z,14.78
2022-08-08T03:55:55.428Z,14.78
2022-08-08T03:56:53.054Z,14.89
2022-08-08T03:58:08.742Z,14.89
2022-08-08T03:58:53.054Z,14.78
2022-08-08T03:59:57.272Z,14.89
2022-08-08T04:00:53.933Z,14.78
2022-08-08T04:02:02.549Z,14.61
2022-08-08T04:02:53.287Z,15.06
2022-08-08T04:03:57.084Z,14.78
2022-08-08T04:04:53.067Z,14.78
2022-08-08T04:05:53.071Z,14.89
2022-08-08T04:06:53.071Z,14.89
2022-08-08T04:07:53.067Z,14.89
2022-08-08T04:08:53.070Z,15.17
2022-08-08T04:09:59.172Z,14.89
2022-08-08T04:10:59.699Z,14.61
2022-08-08T04:11:58.552Z,14.78
2022-08-08T04:12:53.086Z,14.89
2022-08-08T04:14:02.902Z,14.89
2022-08-08T04:14:53.082Z,15.06
2022-08-08T04:15:54.556Z,14.78
2022-08-08T04:16:53.081Z,15.06
2022-08-08T04:17:58.664Z,14.89
2022-08-08T04:18:53.080Z,14.89
2022-08-08T04:19:53.084Z,14.89
2022-08-08T04:20:53.086Z,15.17
2022-08-08T04:21:54.113Z,15.17
2022-08-08T04:22:53.099Z,14.89
2022-08-08T04:24:04.888Z,15.06
2022-08-08T04:24:53.092Z,15.17
2022-08-08T04:25:53.110Z,15.17
2022-08-08T04:26:57.029Z,15.17
2022-08-08T04:28:03.897Z,15.17
2022-08-08T04:28:54.358Z,15.06
2022-08-08T04:29:55.023Z,15.17
2022-08-08T04:30:54.989Z,15.17
2022-08-08T04:31:57.120Z,15.17
2022-08-08T04:32:53.119Z,15.17
2022-08-08T04:33:53.119Z,15.06
2022-08-08T04:34:55.554Z,15.28
2022-08-08T04:35:53.110Z,15.28
2022-08-08T04:36:53.122Z,15.06
2022-08-08T04:37:53.192Z,15.17
2022-08-08T04:39:20.559Z,15.17
2022-08-08T04:40:06.163Z,15.17
2022-08-08T04:40:54.008Z,15.17
2022-08-08T04:41:53.129Z,15.06
2022-08-08T04:42:56.523Z,15.17
2022-08-08T04:43:57.179Z,15.17
2022-08-08T04:44:53.139Z,14.78
2022-08-08T04:45:53.144Z,15.17
2022-08-08T04:46:53.143Z,15.06
2022-08-08T04:47:53.145Z,15.17
2022-08-08T04:48:53.179Z,15.06
2022-08-08T04:49:58.889Z,15.17
2022-08-08T04:50:53.139Z,15.17
2022-08-08T04:51:55.448Z,15.28
2022-08-08T04:52:58.867Z,15.17
2022-08-08T04:54:36.771Z,15.06
2022-08-08T04:54:53.147Z,15.28
2022-08-08T04:55:55.257Z,15.17
2022-08-08T04:56:53.156Z,15.06
2022-08-08T04:57:53.147Z,15.06
2022-08-08T04:58:53.156Z,15.06
2022-08-08T04:59:53.150Z,15.06
2022-08-08T05:00:53.140Z,15.17
2022-08-08T05:01:53.233Z,15.28
2022-08-08T05:02:53.378Z,15.28
2022-08-08T05:04:08.527Z,15.17
2022-08-08T05:04:53.159Z,15.28
2022-08-08T05:05:53.392Z,15.28
2022-08-08T05:06:53.157Z,15.17
2022-08-08T05:07:53.161Z,15.28
2022-08-08T05:08:53.171Z,15.17
2022-08-08T05:09:53.163Z,15.17
2022-08-08T05:10:53.159Z,15.17
2022-08-08T05:11:57.128Z,15.17
2022-08-08T05:12:53.691Z,15.28
2022-08-08T05:13:55.150Z,15.17
2022-08-08T05:14:53.274Z,15.44
2022-08-08T05:16:48.816Z,15.28
2022-08-08T05:17:00.777Z,15.28
2022-08-08T05:17:54.081Z,15.17
2022-08-08T05:18:53.171Z,15.17
2022-08-08T05:20:05.045Z,15.17
2022-08-08T05:20:53.528Z,15.28
2022-08-08T05:21:58.288Z,15.17
2022-08-08T05:22:53.179Z,15.17
2022-08-08T05:23:59.142Z,15.06
2022-08-08T05:24:53.186Z,15.17
2022-08-08T05:25:55.310Z,15.17
2022-08-08T05:26:53.186Z,15.17
2022-08-08T05:27:54.884Z,15.28
2022-08-08T05:28:56.972Z,15.28
2022-08-08T05:29:53.196Z,15.17
2022-08-08T05:30:54.434Z,15.06
2022-08-08T05:32:02.834Z,15.28
2022-08-08T05:32:53.188Z,15.44
2022-08-08T05:33:53.200Z,15.44
2022-08-08T05:34:53.610Z,15.44
2022-08-08T05:35:54.056Z,15.28
2022-08-08T05:36:53.196Z,15.44
2022-08-08T05:37:54.406Z,15.17
2022-08-08T05:38:53.204Z,15.28
2022-08-08T05:39:53.319Z,15.44
2022-08-08T05:40:57.323Z,15.28
2022-08-08T05:41:55.332Z,15.61
2022-08-08T05:42:53.216Z,15.44
2022-08-08T05:44:02.993Z,15.61
2022-08-08T05:44:53.205Z,15.44
2022-08-08T05:45:55.059Z,15.61
2022-08-08T05:46:53.209Z,15.44
2022-08-08T05:48:00.199Z,15.61
2022-08-08T05:48:54.337Z,15.61
2022-08-08T05:49:53.834Z,15.61
2022-08-08T05:50:58.884Z,15.61
2022-08-08T05:51:54.003Z,15.44
2022-08-08T05:52:53.222Z,15.44
2022-08-08T05:53:55.038Z,15.44
2022-08-08T05:54:55.821Z,15.61
2022-08-08T05:56:08.201Z,15.78
2022-08-08T05:56:53.223Z,15.78
2022-08-08T05:57:57.951Z,15.78
2022-08-08T05:58:54.314Z,15.89
2022-08-08T06:00:00.132Z,16.06
2022-08-08T06:00:56.936Z,15.78
2022-08-08T06:01:57.697Z,15.78
2022-08-08T06:02:53.238Z,15.61
2022-08-08T06:03:53.470Z,15.61
2022-08-08T06:04:54.495Z,15.89
2022-08-08T06:05:53.237Z,15.78
2022-08-08T06:06:53.242Z,15.61
2022-08-08T06:08:00.124Z,15.78
2022-08-08T06:08:55.256Z,15.89
2022-08-08T06:10:00.769Z,15.61
2022-08-08T06:10:53.241Z,15.78
2022-08-08T06:11:53.251Z,15.78
2022-08-08T06:12:53.251Z,15.61
2022-08-08T06:13:53.249Z,15.61
2022-08-08T06:14:53.245Z,15.61
2022-08-08T06:15:53.882Z,15.61
2022-08-08T06:16:53.244Z,15.89
2022-08-08T06:18:18.940Z,15.61
2022-08-08T06:18:53.242Z,15.61
2022-08-08T06:19:53.244Z,15.28
2022-08-08T06:20:54.635Z,15.78
2022-08-08T06:21:57.205Z,15.61
2022-08-08T06:22:53.250Z,15.61
2022-08-08T06:24:02.697Z,15.78
2022-08-08T06:24:53.297Z,15.89
2022-08-08T06:26:35.581Z,15.78
2022-08-08T06:26:53.272Z,15.61
2022-08-08T06:27:53.257Z,15.61
2022-08-08T06:28:54.127Z,15.89
2022-08-08T06:29:59.163Z,15.78
2022-08-08T06:30:53.250Z,15.89
2022-08-08T06:32:10.949Z,16.06
2022-08-08T06:32:53.265Z,15.89
2022-08-08T06:34:25.207Z,15.89
2022-08-08T06:34:56.658Z,15.61
2022-08-08T06:36:05.249Z,16.06
2022-08-08T06:36:54.210Z,15.78
2022-08-08T06:37:55.887Z,15.61
2022-08-08T06:38:53.264Z,16.06
2022-08-08T06:39:56.325Z,16.06
2022-08-08T06:40:54.308Z,16.06
2022-08-08T06:41:53.262Z,16.06
2022-08-08T06:42:53.339Z,16.22
2022-08-08T06:43:57.035Z,16.39
2022-08-08T06:44:53.275Z,15.89
2022-08-08T06:45:53.271Z,16.22
2022-08-08T06:46:53.285Z,15.89
2022-08-08T06:48:00.905Z,16.22
2022-08-08T06:48:53.281Z,16.06
2022-08-08T06:49:54.749Z,16.22
2022-08-08T06:50:53.282Z,15.89
2022-08-08T06:51:57.846Z,16.56
2022-08-08T06:52:53.283Z,16.39
2022-08-08T06:53:56.065Z,16.22
2022-08-08T06:54:53.288Z,16.22
2022-08-08T06:56:00.949Z,16.22
2022-08-08T06:56:53.285Z,16.06
2022-08-08T06:57:54.982Z,15.89
2022-08-08T06:58:53.290Z,16.06
2022-08-08T07:00:10.962Z,16.22
2022-08-08T07:00:53.300Z,16.06
2022-08-08T07:02:18.575Z,16.22
2022-08-08T07:02:53.336Z,16.06
2022-08-08T07:04:36.055Z,16.06
2022-08-08T07:04:53.407Z,15.89
2022-08-08T07:06:01.608Z,16.06
2022-08-08T07:06:53.296Z,15.89
2022-08-08T07:07:55.294Z,16.06
2022-08-08T07:08:53.303Z,16.22
2022-08-08T07:09:56.766Z,16.06
2022-08-08T07:10:53.297Z,16.06
2022-08-08T07:11:53.303Z,16.39
2022-08-08T07:12:53.306Z,16.39
2022-08-08T07:14:00.105Z,16.56
2022-08-08T07:14:53.315Z,16.22
2022-08-08T07:16:04.070Z,16.06
2022-08-08T07:16:53.824Z,16.06
2022-08-08T07:18:00.724Z,16.56
2022-08-08T07:18:55.822Z,16.39
2022-08-08T07:19:53.318Z,16.56
2022-08-08T07:20:53.318Z,16.39
2022-08-08T07:21:53.315Z,16.22
2022-08-08T07:22:53.312Z,16.56
2022-08-08T07:23:57.878Z,16.39
2022-08-08T07:24:53.325Z,16.72
2022-08-08T07:25:54.290Z,16.72
2022-08-08T07:26:53.313Z,16.72
2022-08-08T07:28:00.898Z,16.72
2022-08-08T07:28:53.319Z,16.89
2022-08-08T07:30:00.773Z,16.56
2022-08-08T07:30:53.322Z,16.56
2022-08-08T07:31:53.317Z,16.56
2022-08-08T07:32:53.316Z,16.56
2022-08-08T07:33:59.282Z,16.56
2022-08-08T07:35:00.088Z,16.56
2022-08-08T07:35:54.445Z,16.89
2022-08-08T07:36:53.324Z,16.72
2022-08-08T07:37:56.684Z,16.56
2022-08-08T07:38:53.520Z,16.72
2022-08-08T07:39:56.398Z,16.72
2022-08-08T07:40:53.329Z,16.56
2022-08-08T07:41:59.018Z,16.56
2022-08-08T07:42:53.325Z,16.39
2022-08-08T07:43:53.670Z,16.39
2022-08-08T07:44:53.320Z,16.39
2022-08-08T07:46:06.018Z,16.56
2022-08-08T07:46:53.328Z,16.56
2022-08-08T07:47:53.324Z,16.39
2022-08-08T07:48:53.326Z,16.56
2022-08-08T07:49:53.326Z,16.39
2022-08-08T07:50:53.330Z,16.56
2022-08-08T07:51:54.055Z,16.39
2022-08-08T07:52:53.328Z,16.56
2022-08-08T07:54:01.735Z,16.72
2022-08-08T07:54:53.330Z,17
2022-08-08T07:55:53.332Z,17
2022-08-08T07:56:53.329Z,16.89
2022-08-08T07:57:53.323Z,17.17
2022-08-08T07:58:53.329Z,17.5
2022-08-08T07:59:53.335Z,17.17
2022-08-08T08:00:53.368Z,17
2022-08-08T08:02:34.188Z,17.5
2022-08-08T08:02:53.333Z,16.72
2022-08-08T08:03:53.327Z,17.17
2022-08-08T08:04:53.335Z,17.5
2022-08-08T08:05:53.534Z,17.5
2022-08-08T08:06:53.334Z,17.5
2022-08-08T08:07:54.705Z,17.5
2022-08-08T08:08:53.343Z,17.5
2022-08-08T08:09:53.338Z,17.67
2022-08-08T08:10:53.339Z,17.83
2022-08-08T08:11:53.625Z,17.5
2022-08-08T08:12:53.343Z,17.67
2022-08-08T08:14:06.257Z,17.5
2022-08-08T08:14:53.339Z,17.33
2022-08-08T08:15:53.349Z,17.5
2022-08-08T08:16:53.343Z,17.33
2022-08-08T08:17:55.568Z,17.5
2022-08-08T08:18:55.923Z,17.17
2022-08-08T08:19:55.646Z,17.33
2022-08-08T08:20:53.349Z,17.33
2022-08-08T08:21:57.913Z,17.17
2022-08-08T08:22:53.354Z,17.5
2022-08-08T08:23:53.349Z,17.33
2022-08-08T08:24:53.349Z,17.5
2022-08-08T08:25:56.767Z,17.5
2022-08-08T08:26:54.591Z,17.5
2022-08-08T08:27:53.366Z,17.5
2022-08-08T08:28:53.352Z,17.5
2022-08-08T08:29:53.483Z,17.5
2022-08-08T08:30:53.366Z,17.5
2022-08-08T08:31:53.906Z,17.33
2022-08-08T08:32:53.363Z,17.33
2022-08-08T08:33:53.359Z,17
2022-08-08T08:34:53.368Z,17
2022-08-08T08:36:18.015Z,16.89
2022-08-08T08:36:54.734Z,16.89
2022-08-08T08:38:14.955Z,17
2022-08-08T08:38:53.369Z,16.89
2022-08-08T08:39:59.618Z,16.89
2022-08-08T08:40:53.378Z,17
2022-08-08T08:41:53.367Z,16.89
2022-08-08T08:42:53.377Z,17.17
2022-08-08T08:44:13.573Z,17.33
2022-08-08T08:44:53.378Z,17.33
2022-08-08T08:45:57.225Z,16.89
2022-08-08T08:46:58.690Z,16.72
2022-08-08T08:47:54.107Z,16.89
2022-08-08T08:48:53.393Z,17
2022-08-08T08:49:53.368Z,17.17
2022-08-08T08:50:53.383Z,16.89
2022-08-08T08:51:53.382Z,16.89
2022-08-08T08:52:59.729Z,17.33
2022-08-08T08:53:55.814Z,17.17
2022-08-08T08:54:55.757Z,17
2022-08-08T08:55:53.385Z,17
2022-08-08T08:56:53.377Z,16.89
2022-08-08T08:57:53.384Z,17
2022-08-08T08:58:53.388Z,17.5
2022-08-08T08:59:59.897Z,17.67
2022-08-08T09:01:05.444Z,17.83
2022-08-08T09:01:53.451Z,17.94
2022-08-08T09:02:53.406Z,18.17
2022-08-08T09:03:53.395Z,17.94
2022-08-08T09:04:53.394Z,17.94
2022-08-08T09:05:54.616Z,18.17
2022-08-08T09:06:53.409Z,17.94
2022-08-08T09:08:12.514Z,17.94
2022-08-08T09:08:53.407Z,17.94
2022-08-08T09:09:54.981Z,17.94
2022-08-08T09:10:53.414Z,17.94
2022-08-08T09:12:01.843Z,17.83
2022-08-08T09:12:53.408Z,18.17
2022-08-08T09:13:53.591Z,17.94
2022-08-08T09:14:53.419Z,18.17
2022-08-08T09:15:53.411Z,17.94
2022-08-08T09:16:53.419Z,17.94
2022-08-08T09:17:55.488Z,18.17
2022-08-08T09:18:53.420Z,17.94
2022-08-08T09:21:55.049Z,17.94
2022-08-08T09:21:55.350Z,17.94
2022-08-08T09:22:03.083Z,17.83
2022-08-08T09:22:58.126Z,18.17
2022-08-08T09:23:53.427Z,17.94
2022-08-08T09:24:53.427Z,18.28
2022-08-08T09:25:54.594Z,18.17
2022-08-08T09:26:53.436Z,17.94
2022-08-08T09:27:56.585Z,17.94
2022-08-08T09:28:53.432Z,17.94
2022-08-08T09:29:53.442Z,17.94
2022-08-08T09:30:53.441Z,17.67
2022-08-08T09:31:56.298Z,17.67
2022-08-08T09:33:01.506Z,17.94
2022-08-08T09:33:55.213Z,17.94
2022-08-08T09:34:53.434Z,18.17
2022-08-08T09:35:53.447Z,18.17
2022-08-08T09:37:28.947Z,18.28
2022-08-08T09:37:59.184Z,18.28
2022-08-08T09:38:54.125Z,18.44
2022-08-08T09:39:53.481Z,17.94
2022-08-08T09:40:55.759Z,18.17
2022-08-08T09:41:54.655Z,18.17
2022-08-08T09:42:53.446Z,18.17
2022-08-08T09:44:04.882Z,18.28
2022-08-08T09:44:53.459Z,18.44
2022-08-08T09:45:55.639Z,18.44
2022-08-08T09:46:57.401Z,17.94
2022-08-08T09:48:02.876Z,17.83
2022-08-08T09:48:53.456Z,17.94
2022-08-08T09:49:53.454Z,18.17
2022-08-08T09:50:54.957Z,18.17
2022-08-08T09:52:02.100Z,18.28
2022-08-08T09:52:53.979Z,18.44
2022-08-08T09:54:01.397Z,18.44
2022-08-08T09:54:53.468Z,18.94
2022-08-08T09:56:05.543Z,18.78
2022-08-08T09:56:53.476Z,18.61
2022-08-08T09:57:55.577Z,18.78
2022-08-08T09:58:53.476Z,18.44
2022-08-08T10:00:28.566Z,18.78
2022-08-08T10:00:57.331Z,18.44
2022-08-08T10:01:58.840Z,18.28
2022-08-08T10:02:53.473Z,18.44
2022-08-08T10:03:55.698Z,17.94
2022-08-08T10:04:53.614Z,18.17
2022-08-08T10:05:53.560Z,18.17
2022-08-08T10:06:53.778Z,18.44
2022-08-08T10:08:00.211Z,18.28
2022-08-08T10:08:53.479Z,18.44
2022-08-08T10:09:59.287Z,18.44
2022-08-08T10:10:53.485Z,18.44
2022-08-08T10:12:23.399Z,18.78
2022-08-08T10:12:57.263Z,18.44
2022-08-08T10:13:57.249Z,18.61
2022-08-08T10:14:53.489Z,18.44
2022-08-08T10:15:59.607Z,18.44
2022-08-08T10:16:53.495Z,18.44
2022-08-08T10:17:57.747Z,18.78
2022-08-08T10:18:55.271Z,18.94
2022-08-08T10:19:57.984Z,19.06
2022-08-08T10:20:58.411Z,18.94
2022-08-08T10:21:53.516Z,18.94
2022-08-08T10:22:54.795Z,18.44
2022-08-08T10:23:56.178Z,18.94
2022-08-08T10:24:53.502Z,18.61
2022-08-08T10:25:56.369Z,18.61
2022-08-08T10:26:57.765Z,18.44
2022-08-08T10:27:53.507Z,18.44
2022-08-08T10:28:53.780Z,18.17
2022-08-08T10:29:57.300Z,18.44
2022-08-08T10:30:57.227Z,18.94
2022-08-08T10:31:54.859Z,18.78
2022-08-08T10:32:53.511Z,18.94
2022-08-08T10:34:18.254Z,19.06
2022-08-08T10:34:58.640Z,18.94
2022-08-08T10:36:07.952Z,18.94
2022-08-08T10:36:53.518Z,18.61
2022-08-08T10:37:53.517Z,18.94
2022-08-08T10:38:53.515Z,18.94
2022-08-08T10:39:54.878Z,19.06
2022-08-08T10:40:53.857Z,19.44
2022-08-08T10:41:58.633Z,19.44
2022-08-08T10:42:53.540Z,19.28
2022-08-08T10:43:53.524Z,19.94
2022-08-08T10:44:53.535Z,19.94
2022-08-08T10:45:55.470Z,19.44
2022-08-08T10:46:53.528Z,19.56
2022-08-08T10:47:55.159Z,19.94
2022-08-08T10:48:58.015Z,20.72
2022-08-08T10:50:01.031Z,20.72
2022-08-08T10:50:53.535Z,20.33
2022-08-08T10:51:53.528Z,20.33
2022-08-08T10:52:53.534Z,20.83
2022-08-08T10:53:57.023Z,20.72
2022-08-08T10:54:53.543Z,21.39
2022-08-08T10:55:53.543Z,21
2022-08-08T10:56:53.547Z,21.56
2022-08-08T10:57:53.601Z,21.72
2022-08-08T10:58:54.728Z,21.39
2022-08-08T10:59:53.540Z,21.39
2022-08-08T11:01:01.979Z,20.72
2022-08-08T11:01:54.797Z,19.78
2022-08-08T11:02:53.559Z,19.56
2022-08-08T11:04:00.990Z,19.06
2022-08-08T11:04:54.168Z,19.28
2022-08-08T11:06:00.521Z,19.78
2022-08-08T11:06:53.554Z,20.11
2022-08-08T11:08:30.402Z,20.11
2022-08-08T11:08:53.946Z,20.39
2022-08-08T11:09:53.556Z,20.56
2022-08-08T11:10:53.557Z,20.83
2022-08-08T11:12:00.498Z,20.11
2022-08-08T11:13:06.615Z,19.61
2022-08-08T11:13:59.953Z,19.61
2022-08-08T11:14:53.563Z,19.61
2022-08-08T11:16:01.300Z,19.61
2022-08-08T11:16:53.553Z,19.61
2022-08-08T11:17:59.069Z,19.83
2022-08-08T11:18:53.566Z,19.94
2022-08-08T11:19:53.575Z,20.56
2022-08-08T11:20:53.570Z,20.11
2022-08-08T11:21:56.240Z,20.56
2022-08-08T11:22:53.571Z,20.11
2022-08-08T11:24:01.566Z,20.11
2022-08-08T11:24:53.575Z,19.94
2022-08-08T11:25:57.322Z,19.61
2022-08-08T11:26:53.767Z,19.83
2022-08-08T11:27:53.581Z,20.22
2022-08-08T11:28:53.582Z,20.39
2022-08-08T11:30:18.575Z,20.22
2022-08-08T11:30:53.574Z,19.94
2022-08-08T11:31:53.607Z,20.11
2022-08-08T11:32:53.787Z,19.94
2022-08-08T11:34:01.827Z,20.11
2022-08-08T11:35:08.197Z,20.56
2022-08-08T11:35:53.599Z,20.11
2022-08-08T11:36:53.583Z,19.61
2022-08-08T11:38:34.831Z,20.11
2022-08-08T11:38:53.851Z,19.94
2022-08-08T11:39:57.060Z,20.11
2022-08-08T11:40:53.620Z,20.11
2022-08-08T11:41:53.612Z,20.11
2022-08-08T11:42:53.589Z,20.11
2022-08-08T11:43:53.676Z,20.11
2022-08-08T11:44:53.585Z,19.94
2022-08-08T11:46:09.390Z,19.94
2022-08-08T11:46:54.339Z,19.94
2022-08-08T11:48:02.262Z,20.11
2022-08-08T11:48:53.596Z,20.56
2022-08-08T11:49:53.599Z,20.72
2022-08-08T11:50:53.601Z,20.72
2022-08-08T11:51:53.600Z,20.72
2022-08-08T11:52:53.604Z,20.39
2022-08-08T11:53:59.390Z,20.72
2022-08-08T11:54:54.487Z,20.56
2022-08-08T11:55:53.605Z,20.39
2022-08-08T11:56:56.299Z,20.11
2022-08-08T11:58:00.116Z,19.83
2022-08-08T11:58:53.599Z,20.11
2022-08-08T11:59:58.875Z,19.61
2022-08-08T12:00:53.804Z,19.33
2022-08-08T12:02:01.183Z,20.11
2022-08-08T12:02:53.680Z,20.56
2022-08-08T12:03:57.493Z,20.39
2022-08-08T12:04:53.611Z,20.56
2022-08-08T12:05:53.603Z,20.11
2022-08-08T12:06:53.607Z,20.22
2022-08-08T12:07:53.613Z,20.72
2022-08-08T12:08:53.614Z,20.83
2022-08-08T12:09:57.192Z,20.83
2022-08-08T12:10:53.613Z,21.39
2022-08-08T12:11:53.614Z,21.06
2022-08-08T12:12:54.499Z,21.56
2022-08-08T12:14:02.335Z,21.39
2022-08-08T12:14:54.653Z,21.39
2022-08-08T12:15:53.618Z,21.56
2022-08-08T12:16:53.618Z,21.22
2022-08-08T12:17:53.621Z,21.56
2022-08-08T12:18:53.627Z,21.89
2022-08-08T12:19:53.968Z,22.06
2022-08-08T12:20:54.149Z,22.39
2022-08-08T12:21:58.981Z,22.22
2022-08-08T12:22:53.625Z,22.78
2022-08-08T12:23:58.437Z,23.11
2022-08-08T12:24:54.146Z,23.11
2022-08-08T12:25:55.201Z,22.61
2022-08-08T12:26:54.011Z,22.78
2022-08-08T12:27:53.627Z,22.22
2022-08-08T12:28:53.627Z,22.78
2022-08-08T12:29:53.621Z,22.61
2022-08-08T12:30:53.633Z,22.61
2022-08-08T12:31:54.386Z,22.61
2022-08-08T12:32:53.629Z,23.11
2022-08-08T12:34:02.380Z,23.11
2022-08-08T12:34:56.345Z,23.67
2022-08-08T12:35:53.623Z,23.44
2022-08-08T12:36:53.637Z,22.78
2022-08-08T12:38:01.803Z,22.61
2022-08-08T12:38:55.265Z,22.39
2022-08-08T12:39:59.877Z,22.61
2022-08-08T12:40:54.876Z,22.61
2022-08-08T12:41:56.918Z,22.22
2022-08-08T12:42:53.785Z,22.39
2022-08-08T12:43:59.307Z,22.61
2022-08-08T12:44:53.635Z,22.94
2022-08-08T12:45:59.071Z,22.22
2022-08-08T12:46:57.374Z,22.06
2022-08-08T12:47:59.122Z,21.89
2022-08-08T12:49:12.000Z,22.61
2022-08-08T12:49:53.630Z,21.89
2022-08-08T12:50:53.641Z,21.56
2022-08-08T12:51:59.436Z,21.39
2022-08-08T12:52:53.642Z,21.39
2022-08-08T12:53:53.635Z,21.39